createdAt,value
2022-09-13T00:01:27.759Z,14.95
2022-09-13T00:03:56.401Z,14.98
2022-09-13T00:06:27.553Z,14.97
2022-09-13T00:08:56.721Z,14.92
2022-09-13T00:11:29.087Z,14.84
2022-09-13T00:13:58.703Z,14.78
2022-09-13T00:16:31.026Z,14.68
2022-09-13T00:19:01.548Z,14.70
2022-09-13T00:21:31.460Z,14.68
2022-09-13T00:23:59.973Z,14.68
2022-09-13T00:26:30.312Z,14.71
2022-09-13T00:29:00.494Z,14.75
2022-09-13T00:31:30.231Z,14.63
2022-09-13T00:34:02.000Z,14.63
2022-09-13T00:36:33.052Z,14.61
2022-09-13T00:39:02.387Z,14.64
2022-09-13T00:41:31.307Z,14.68
2022-09-13T00:44:02.331Z,14.68
2022-09-13T00:46:39.974Z,14.64
2022-09-13T00:49:18.920Z,14.58
2022-09-13T00:51:56.864Z,14.54
2022-09-13T00:54:33.878Z,14.53
2022-09-13T00:57:07.447Z,14.50
2022-09-13T00:59:42.949Z,14.49
2022-09-13T01:02:12.791Z,14.41
2022-09-13T01:04:42.039Z,14.39
2022-09-13T01:07:16.487Z,14.38
2022-09-13T01:09:50.659Z,14.39
2022-09-13T01:12:32.106Z,14.41
2022-09-13T01:15:05.451Z,14.33
2022-09-13T01:17:36.348Z,14.27
2022-09-13T01:20:09.930Z,14.20
2022-09-13T01:23:40.461Z,14.13
2022-09-13T01:27:04.226Z,14.07
2022-09-13T01:30:12.776Z,14.07
2022-09-13T01:33:24.839Z,14.02
2022-09-13T01:36:11.701Z,14.00
2022-09-13T01:42:23.365Z,14.07
2022-09-13T01:45:13.904Z,14.11
2022-09-13T01:47:53.749Z,14.12
2022-09-13T01:50:36.312Z,14.07
2022-09-13T01:53:20.093Z,14.08
2022-09-13T01:55:57.729Z,14.09
2022-09-13T01:58:35.058Z,14.12
2022-09-13T02:01:15.433Z,14.13
2022-09-13T02:03:57.329Z,14.16
2022-09-13T02:06:34.930Z,14.19
2022-09-13T02:09:11.403Z,14.15
2022-09-13T02:11:46.523Z,14.10
2022-09-13T02:14:22.452Z,14.10
2022-09-13T02:17:04.249Z,14.07
2022-09-13T02:19:42.834Z,14.08
2022-09-13T02:22:20.155Z,14.11
2022-09-13T02:24:56.599Z,14.13
2022-09-13T02:27:33.468Z,14.10
2022-09-13T02:30:09.694Z,14.11
2022-09-13T02:32:44.456Z,14.13
2022-09-13T02:35:22.744Z,14.11
2022-09-13T02:38:02.321Z,14.06
2022-09-13T02:40:40.235Z,14.04
2022-09-13T02:43:16.170Z,14.05
2022-09-13T02:45:54.413Z,14.10
2022-09-13T02:48:37.448Z,14.03
2022-09-13T02:51:19.569Z,14.05
2022-09-13T02:54:00.730Z,14.07
2022-09-13T02:56:42.995Z,14.08
2022-09-13T02:59:19.026Z,14.03
2022-09-13T03:01:54.113Z,14.03
2022-09-13T03:04:22.805Z,14.02
2022-09-13T03:06:53.329Z,14.01
2022-09-13T03:09:23.357Z,13.94
2022-09-13T03:12:20.092Z,13.92
2022-09-13T03:14:57.943Z,13.97
2022-09-13T03:17:58.391Z,14.02
2022-09-13T03:20:41.730Z,13.98
2022-09-13T03:23:37.202Z,13.99
2022-09-13T03:26:25.792Z,13.99
2022-09-13T03:29:12.299Z,13.97
2022-09-13T03:31:54.062Z,13.97
2022-09-13T03:34:36.906Z,13.99
2022-09-13T03:37:15.316Z,14.00
2022-09-13T03:39:57.454Z,13.97
2022-09-13T03:42:34.032Z,13.97
2022-09-13T03:45:06.090Z,13.95
2022-09-13T03:47:38.729Z,13.95
2022-09-13T03:50:10.717Z,13.98
2022-09-13T03:52:42.252Z,13.91
2022-09-13T03:55:15.921Z,13.93
2022-09-13T03:57:45.356Z,13.91
2022-09-13T04:00:18.917Z,13.94
2022-09-13T04:02:48.134Z,13.88
2022-09-13T04:05:17.933Z,13.92
2022-09-13T04:07:47.665Z,13.95
2022-09-13T04:10:18.422Z,13.93
2022-09-13T04:12:47.008Z,13.89
2022-09-13T04:15:16.264Z,13.94
2022-09-13T04:17:45.308Z,13.96
2022-09-13T04:20:13.878Z,13.99
2022-09-13T04:22:42.869Z,14.01
2022-09-13T04:25:11.670Z,14.03
2022-09-13T04:27:41.548Z,14.05
2022-09-13T04:30:15.444Z,14.04
2022-09-13T04:32:45.790Z,14.07
2022-09-13T04:35:19.685Z,14.09
2022-09-13T04:37:48.271Z,14.11
2022-09-13T04:40:17.186Z,14.12
2022-09-13T04:42:47.441Z,14.11
2022-09-13T04:45:16.089Z,14.11
2022-09-13T04:47:45.334Z,14.08
2022-09-13T04:50:14.770Z,14.08
2022-09-13T04:52:43.405Z,14.10
2022-09-13T04:55:12.013Z,14.11
2022-09-13T04:57:40.693Z,14.13
2022-09-13T05:00:12.735Z,14.13
2022-09-13T05:02:41.265Z,14.14
2022-09-13T05:05:11.876Z,14.18
2022-09-13T05:07:40.895Z,14.19
2022-09-13T05:10:15.191Z,14.19
2022-09-13T05:12:47.525Z,14.21
2022-09-13T05:15:18.095Z,14.22
2022-09-13T05:17:47.127Z,14.25
2022-09-13T05:20:16.137Z,14.27
2022-09-13T05:22:53.787Z,14.27
2022-09-13T05:25:45.164Z,14.27
2022-09-13T05:28:20.721Z,14.30
2022-09-13T05:30:59.054Z,14.31
2022-09-13T05:33:30.449Z,14.33
2022-09-13T05:35:59.851Z,14.37
2022-09-13T05:38:28.921Z,14.37
2022-09-13T05:40:59.310Z,14.36
2022-09-13T05:43:31.530Z,14.36
2022-09-13T05:46:07.714Z,14.41
2022-09-13T05:48:38.329Z,14.43
2022-09-13T05:51:09.091Z,14.44
2022-09-13T05:53:39.868Z,14.43
2022-09-13T05:56:14.529Z,14.44
2022-09-13T05:58:49.503Z,14.48
2022-09-13T06:01:22.495Z,14.48
2022-09-13T06:03:52.471Z,14.48
2022-09-13T06:06:22.064Z,14.53
2022-09-13T06:08:54.717Z,14.52
2022-09-13T06:11:24.446Z,14.53
2022-09-13T06:13:54.029Z,14.52
2022-09-13T06:16:24.361Z,14.56
2022-09-13T06:18:53.423Z,14.58
2022-09-13T06:21:28.757Z,14.58
2022-09-13T06:23:58.445Z,14.59
2022-09-13T06:26:29.887Z,14.60
2022-09-13T06:28:59.486Z,14.64
2022-09-13T06:31:30.169Z,14.66
2022-09-13T06:34:02.524Z,14.67
2022-09-13T06:36:32.736Z,14.70
2022-09-13T06:39:02.538Z,14.74
2022-09-13T06:41:31.644Z,14.76
2022-09-13T06:44:02.231Z,14.75
2022-09-13T06:46:35.587Z,14.76
2022-09-13T06:49:08.068Z,14.78
2022-09-13T06:51:38.429Z,14.81
2022-09-13T06:54:07.078Z,14.85
2022-09-13T06:56:39.059Z,14.91
2022-09-13T06:59:09.842Z,14.96
2022-09-13T07:01:43.793Z,15.00
2022-09-13T07:04:14.865Z,15.03
2022-09-13T07:06:47.782Z,15.08
2022-09-13T07:09:18.614Z,15.11
2022-09-13T07:11:48.241Z,15.15
2022-09-13T07:14:19.505Z,15.18
2022-09-13T07:16:51.795Z,15.21
2022-09-13T07:19:23.934Z,15.24
2022-09-13T07:21:52.559Z,15.29
2022-09-13T07:24:22.593Z,15.35
2022-09-13T07:26:52.069Z,15.41
2022-09-13T07:29:24.255Z,15.45
2022-09-13T07:31:58.817Z,15.51
2022-09-13T07:34:29.200Z,15.56
2022-09-13T07:36:57.709Z,15.59
2022-09-13T07:39:26.891Z,15.65
2022-09-13T07:41:55.408Z,15.72
2022-09-13T07:44:24.032Z,15.78
2022-09-13T07:46:54.435Z,15.85
2022-09-13T07:49:24.322Z,15.89
2022-09-13T07:51:53.437Z,15.94
2022-09-13T07:54:22.504Z,16.02
2022-09-13T07:56:51.931Z,16.07
2022-09-13T07:59:21.135Z,16.16
2022-09-13T08:01:53.491Z,16.23
2022-09-13T08:04:26.853Z,16.31
2022-09-13T08:06:55.964Z,16.37
2022-09-13T08:09:25.255Z,16.44
2022-09-13T08:11:54.581Z,16.45
2022-09-13T08:14:24.625Z,16.46
2022-09-13T08:16:57.462Z,16.52
2022-09-13T08:19:27.453Z,16.59
2022-09-13T08:21:56.355Z,16.66
2022-09-13T08:24:25.060Z,16.74
2022-09-13T08:26:57.643Z,16.81
2022-09-13T08:29:26.537Z,16.89
2022-09-13T08:31:56.448Z,16.97
2022-09-13T08:34:24.886Z,17.05
2022-09-13T08:36:53.417Z,17.12
2022-09-13T08:39:22.747Z,17.21
2022-09-13T08:42:22.230Z,17.28
2022-09-13T08:44:55.164Z,17.37
2022-09-13T08:47:39.474Z,17.44
2022-09-13T08:50:18.460Z,17.51
2022-09-13T08:53:08.690Z,17.59
2022-09-13T08:55:51.455Z,17.69
2022-09-13T08:58:54.869Z,17.77
2022-09-13T09:01:46.002Z,17.87
2022-09-13T09:04:35.717Z,17.95
2022-09-13T09:07:13.888Z,18.00
2022-09-13T09:09:50.980Z,18.04
2022-09-13T09:12:35.486Z,18.10
2022-09-13T09:15:16.777Z,18.17
2022-09-13T09:17:54.608Z,18.23
2022-09-13T09:20:32.845Z,18.29
2022-09-13T09:23:08.227Z,18.35
2022-09-13T09:25:37.041Z,18.39
2022-09-13T09:28:14.917Z,18.44
2022-09-13T09:30:57.711Z,18.50
2022-09-13T09:34:01.890Z,18.57
2022-09-13T09:36:41.104Z,18.65
2022-09-13T09:39:16.240Z,18.71
2022-09-13T09:41:47.099Z,18.77
2022-09-13T09:44:21.109Z,18.82
2022-09-13T09:46:56.710Z,18.84
2022-09-13T09:49:54.799Z,18.89
2022-09-13T09:52:32.210Z,18.91
2022-09-13T09:55:15.599Z,18.94
2022-09-13T09:57:58.193Z,18.97
2022-09-13T10:00:31.343Z,18.99
2022-09-13T10:03:04.999Z,19.00
2022-09-13T10:05:35.748Z,19.02
2022-09-13T10:08:09.826Z,19.02
2022-09-13T10:10:44.657Z,19.01
2022-09-13T10:13:20.744Z,19.02
2022-09-13T10:15:58.326Z,19.06
2022-09-13T10:18:45.651Z,19.07
2022-09-13T10:21:28.369Z,19.10
2022-09-13T10:24:22.435Z,19.11
2022-09-13T10:26:51.710Z,19.13
2022-09-13T10:29:20.801Z,19.14
2022-09-13T10:31:53.819Z,19.15
2022-09-13T10:34:26.861Z,19.16
2022-09-13T10:37:02.483Z,19.17
2022-09-13T10:39:37.377Z,19.17
2022-09-13T10:42:09.620Z,19.16
2022-09-13T10:44:45.772Z,19.16
2022-09-13T10:47:21.295Z,19.15
2022-09-13T10:49:53.879Z,19.16
2022-09-13T10:52:29.630Z,19.18
2022-09-13T10:55:36.070Z,19.19
2022-09-13T10:58:20.395Z,19.22
2022-09-13T11:01:41.535Z,19.25
2022-09-13T11:05:06.514Z,19.25
2022-09-13T11:07:52.121Z,19.27
2022-09-13T11:10:34.904Z,19.32
2022-09-13T11:13:15.893Z,19.36
2022-09-13T11:15:57.891Z,19.39
2022-09-13T11:19:08.401Z,19.45
2022-09-13T11:21:59.656Z,19.47
2022-09-13T11:24:56.971Z,19.51
2022-09-13T11:27:42.691Z,19.56
2022-09-13T11:30:18.773Z,19.57
2022-09-13T11:33:21.013Z,19.63
2022-09-13T11:36:12.433Z,19.69
2022-09-13T11:39:03.777Z,19.73
2022-09-13T11:41:50.121Z,19.77
2022-09-13T11:44:46.999Z,19.87
2022-09-13T11:47:28.865Z,19.94
2022-09-13T11:50:21.568Z,20.02
2022-09-13T11:53:09.822Z,20.09
2022-09-13T11:55:48.882Z,20.17
2022-09-13T11:58:25.744Z,20.23
2022-09-13T12:01:01.517Z,20.30
2022-09-13T12:03:41.654Z,20.35
2022-09-13T12:06:19.993Z,20.42
2022-09-13T12:08:52.689Z,20.49
2022-09-13T12:11:29.470Z,20.55
2022-09-13T12:14:03.731Z,20.62
2022-09-13T12:16:40.628Z,20.67
2022-09-13T12:19:18.603Z,20.72
2022-09-13T12:21:50.118Z,20.76
2022-09-13T12:24:26.601Z,20.82
2022-09-13T12:27:02.138Z,20.85
2022-09-13T12:29:38.287Z,20.92
2022-09-13T12:32:11.944Z,20.97
2022-09-13T12:34:49.958Z,21.01
2022-09-13T12:37:59.553Z,21.09
2022-09-13T12:40:53.736Z,21.15
2022-09-13T12:43:50.575Z,21.24
2022-09-13T12:46:59.091Z,21.30
2022-09-13T12:49:47.258Z,21.37
2022-09-13T12:52:39.274Z,21.42
2022-09-13T12:55:49.492Z,21.47
2022-09-13T12:58:53.348Z,21.54
2022-09-13T13:01:25.793Z,21.56
2022-09-13T13:04:01.195Z,21.59
2022-09-13T13:06:36.987Z,21.64
2022-09-13T13:09:26.583Z,21.68
2022-09-13T13:11:59.726Z,21.70
2022-09-13T13:14:45.947Z,21.72
2022-09-13T13:17:43.248Z,21.74
2022-09-13T13:21:07.353Z,21.76
2022-09-13T13:23:41.143Z,21.76
2022-09-13T13:26:14.117Z,21.77
2022-09-13T13:29:18.262Z,21.77
2022-09-13T13:32:18.256Z,21.78
2022-09-13T13:34:50.951Z,21.78
2022-09-13T13:37:37.083Z,21.76
2022-09-13T13:40:27.006Z,21.77
2022-09-13T13:43:32.870Z,21.79
2022-09-13T13:46:32.157Z,21.82
2022-09-13T13:49:46.318Z,21.85
2022-09-13T13:52:41.361Z,21.88
2022-09-13T13:55:42.578Z,21.92
2022-09-13T13:58:46.165Z,21.98
2022-09-13T14:01:22.519Z,22.02
2022-09-13T14:04:58.377Z,22.04
2022-09-13T14:10:52.841Z,22.08
2022-09-13T14:13:54.306Z,22.09
2022-09-13T14:16:44.108Z,22.09
2022-09-13T14:19:25.717Z,22.09
2022-09-13T14:22:14.443Z,22.11
2022-09-13T14:24:46.452Z,22.10
2022-09-13T14:27:37.703Z,22.10
2022-09-13T14:30:22.211Z,22.07
2022-09-13T14:32:53.967Z,22.05
2022-09-13T14:35:33.799Z,22.06
2022-09-13T14:38:19.710Z,22.07
2022-09-13T14:40:52.493Z,22.07
2022-09-13T14:43:25.949Z,22.04
2022-09-13T14:46:05.360Z,22.03
2022-09-13T14:48:42.298Z,22.05
2022-09-13T14:51:21.629Z,22.05
2022-09-13T14:53:55.382Z,22.05
2022-09-13T14:56:36.039Z,22.09
2022-09-13T14:59:15.764Z,22.09
2022-09-13T15:01:44.261Z,22.11
2022-09-13T15:04:13.036Z,22.14
2022-09-13T15:06:44.479Z,22.17
2022-09-13T15:09:28.418Z,22.18
2022-09-13T15:12:01.203Z,22.17
2022-09-13T15:14:34.869Z,22.20
2022-09-13T15:17:11.043Z,22.21
2022-09-13T15:19:44.564Z,22.21
2022-09-13T15:22:24.566Z,22.21
2022-09-13T15:24:56.677Z,22.21
2022-09-13T15:27:28.960Z,22.19
2022-09-13T15:30:03.589Z,22.17
2022-09-13T15:32:37.866Z,22.16
2022-09-13T15:35:23.467Z,22.15
2022-09-13T15:38:02.474Z,22.17
2022-09-13T15:40:43.978Z,22.16
2022-09-13T15:43:12.600Z,22.15
2022-09-13T15:45:42.510Z,22.15
2022-09-13T15:48:25.648Z,22.15
2022-09-13T15:51:10.436Z,22.14
2022-09-13T15:53:41.214Z,22.15
2022-09-13T15:56:14.095Z,22.12
2022-09-13T15:58:43.029Z,22.12
2022-09-13T16:01:16.608Z,22.11
2022-09-13T16:03:45.362Z,22.10
2022-09-13T16:06:13.931Z,22.10
2022-09-13T16:08:42.486Z,22.10
2022-09-13T16:11:11.014Z,22.08
2022-09-13T16:13:39.571Z,22.08
2022-09-13T16:16:12.502Z,22.06
2022-09-13T16:18:43.471Z,22.06
2022-09-13T16:21:12.373Z,22.04
2022-09-13T16:23:40.943Z,22.00
2022-09-13T16:26:09.512Z,21.97
2022-09-13T16:28:38.665Z,21.95
2022-09-13T16:31:08.470Z,21.93
2022-09-13T16:33:37.019Z,21.92
2022-09-13T16:36:07.523Z,21.91
2022-09-13T16:38:36.676Z,21.87
2022-09-13T16:41:06.614Z,21.84
2022-09-13T16:43:36.261Z,21.82
2022-09-13T16:46:09.215Z,21.79
2022-09-13T16:48:38.878Z,21.78
2022-09-13T16:51:11.705Z,21.76
2022-09-13T16:53:43.711Z,21.74
2022-09-13T16:56:16.941Z,21.71
2022-09-13T16:58:47.770Z,21.68
2022-09-13T17:01:20.204Z,21.66
2022-09-13T17:03:51.750Z,21.64
2022-09-13T17:06:26.787Z,21.59
2022-09-13T17:09:00.773Z,21.55
2022-09-13T17:11:32.438Z,21.52
2022-09-13T17:14:04.551Z,21.49
2022-09-13T17:16:39.048Z,21.45
2022-09-13T17:19:13.109Z,21.43
2022-09-13T17:21:43.503Z,21.41
2022-09-13T17:24:13.787Z,21.39
2022-09-13T17:26:43.118Z,21.37
2022-09-13T17:29:14.280Z,21.33
2022-09-13T17:31:43.899Z,21.29
2022-09-13T17:34:13.479Z,21.26
2022-09-13T17:36:47.224Z,21.22
2022-09-13T17:39:19.887Z,21.19
2022-09-13T17:41:50.245Z,21.17
2022-09-13T17:44:19.538Z,21.14
2022-09-13T17:46:48.090Z,21.11
2022-09-13T17:49:16.640Z,21.07
2022-09-13T17:51:47.523Z,21.03
2022-09-13T17:54:16.828Z,21.02
2022-09-13T17:56:46.779Z,21.00
2022-09-13T17:59:19.346Z,20.98
2022-09-13T18:01:50.930Z,20.92
2022-09-13T18:04:21.899Z,20.88
2022-09-13T18:06:52.612Z,20.85
2022-09-13T18:09:22.133Z,20.83
2022-09-13T18:11:50.692Z,20.80
2022-09-13T18:14:20.718Z,20.75
2022-09-13T18:16:55.704Z,20.75
2022-09-13T18:19:44.216Z,20.72
2022-09-13T18:22:15.436Z,20.69
2022-09-13T18:24:43.976Z,20.63
2022-09-13T18:27:12.571Z,20.65
2022-09-13T18:29:40.997Z,20.64
2022-09-13T18:32:10.088Z,20.61
2022-09-13T18:34:38.956Z,20.58
2022-09-13T18:37:07.394Z,20.57
2022-09-13T18:39:37.311Z,20.57
2022-09-13T18:42:06.784Z,20.54
2022-09-13T18:44:35.242Z,20.52
2022-09-13T18:47:05.558Z,20.49
2022-09-13T18:49:34.215Z,20.47
2022-09-13T18:52:03.082Z,20.45
2022-09-13T18:54:33.180Z,20.44
2022-09-13T18:57:03.489Z,20.42
2022-09-13T18:59:33.341Z,20.40
2022-09-13T19:02:02.245Z,20.39
2022-09-13T19:04:32.101Z,20.36
2022-09-13T19:07:02.574Z,20.36
2022-09-13T19:09:31.056Z,20.34
2022-09-13T19:11:59.728Z,20.32
2022-09-13T19:14:33.330Z,20.31
2022-09-13T19:17:03.209Z,20.30
2022-09-13T19:19:32.380Z,20.27
2022-09-13T19:22:00.940Z,20.26
2022-09-13T19:24:29.518Z,20.25
2022-09-13T19:26:58.363Z,20.24
2022-09-13T19:29:28.291Z,20.22
2022-09-13T19:31:57.478Z,20.21
2022-09-13T19:34:26.164Z,20.20
2022-09-13T19:36:58.142Z,20.17
2022-09-13T19:39:29.827Z,20.18
2022-09-13T19:42:00.966Z,20.15
2022-09-13T19:44:31.071Z,20.13
2022-09-13T19:49:49.813Z,20.06
2022-09-13T19:52:18.716Z,20.04
2022-09-13T19:54:49.420Z,20.03
2022-09-13T19:57:18.109Z,20.03
2022-09-13T19:59:48.377Z,20.01
2022-09-13T20:02:17.371Z,20.00
2022-09-13T20:04:49.272Z,20.00
2022-09-13T20:07:18.040Z,19.95
2022-09-13T20:09:48.765Z,19.95
2022-09-13T20:12:17.582Z,19.92
2022-09-13T20:14:48.082Z,19.86
2022-09-13T20:17:16.895Z,19.82
2022-09-13T20:19:49.900Z,19.84
2022-09-13T20:22:19.308Z,19.84
2022-09-13T20:24:48.758Z,19.84
2022-09-13T20:27:17.359Z,19.81
2022-09-13T20:29:47.383Z,19.78
2022-09-13T20:32:16.223Z,19.78
2022-09-13T20:34:46.668Z,19.79
2022-09-13T20:37:15.328Z,19.79
2022-09-13T20:39:45.574Z,19.77
2022-09-13T20:42:15.634Z,19.77
2022-09-13T20:44:46.020Z,19.75
2022-09-13T20:47:16.343Z,19.74
2022-09-13T20:49:45.037Z,19.74
2022-09-13T20:52:14.440Z,19.72
2022-09-13T20:54:43.245Z,19.69
2022-09-13T20:57:11.823Z,19.67
2022-09-13T20:59:43.016Z,19.64
2022-09-13T21:02:11.922Z,19.63
2022-09-13T21:04:41.902Z,19.61
2022-09-13T21:07:30.447Z,19.61
2022-09-13T21:10:01.623Z,19.61
2022-09-13T21:12:31.336Z,19.57
2022-09-13T21:15:02.797Z,19.55
2022-09-13T21:17:31.455Z,19.54
2022-09-13T21:20:01.457Z,19.55
2022-09-13T21:22:33.078Z,19.54
2022-09-13T21:25:01.704Z,19.53
2022-09-13T21:27:33.445Z,19.52
2022-09-13T21:30:02.952Z,19.52
2022-09-13T21:32:32.196Z,19.52
2022-09-13T21:35:02.090Z,19.50
2022-09-13T21:37:30.721Z,19.48
2022-09-13T21:39:59.386Z,19.48
2022-09-13T21:42:28.982Z,19.48
2022-09-13T21:44:58.390Z,19.46
2022-09-13T21:47:27.018Z,19.45
2022-09-13T21:49:55.488Z,19.44
2022-09-13T21:52:25.435Z,19.42
2022-09-13T21:54:55.413Z,19.41
2022-09-13T21:57:25.128Z,19.38
2022-09-13T21:59:53.595Z,19.37
2022-09-13T22:02:24.843Z,19.37
2022-09-13T22:04:54.086Z,19.36
2022-09-13T22:07:24.372Z,19.37
2022-09-13T22:09:52.978Z,19.36
2022-09-13T22:12:23.435Z,19.36
2022-09-13T22:14:52.314Z,19.36
2022-09-13T22:17:20.737Z,19.35
2022-09-13T22:19:49.119Z,19.33
2022-09-13T22:22:20.653Z,19.33
2022-09-13T22:24:50.683Z,19.31
2022-09-13T22:27:19.153Z,19.28
2022-09-13T22:29:48.361Z,19.27
2022-09-13T22:32:20.315Z,19.27
2022-09-13T22:34:52.057Z,19.27
2022-09-13T22:37:20.554Z,19.27
2022-09-13T22:39:50.852Z,19.26
2022-09-13T22:42:19.475Z,19.25
2022-09-13T22:44:48.078Z,19.23
2022-09-13T22:47:16.747Z,19.23
2022-09-13T22:49:45.783Z,19.22
2022-09-13T22:52:14.271Z,19.23
2022-09-13T22:54:44.288Z,19.21
2022-09-13T22:57:14.148Z,19.20
2022-09-13T22:59:44.088Z,19.20
2022-09-13T23:02:12.818Z,19.20
2022-09-13T23:04:41.392Z,19.20
2022-09-13T23:07:09.861Z,19.19
2022-09-13T23:09:38.319Z,19.19
2022-09-13T23:12:08.374Z,19.18
2022-09-13T23:14:38.807Z,19.18
2022-09-13T23:17:07.357Z,19.19
2022-09-13T23:19:36.989Z,19.17
2022-09-13T23:22:06.889Z,19.16
2022-09-13T23:24:36.143Z,19.16
2022-09-13T23:27:04.706Z,19.16
2022-09-13T23:29:33.673Z,19.13
2022-09-13T23:32:04.841Z,19.09
2022-09-13T23:34:33.357Z,19.06
2022-09-13T23:37:01.882Z,19.07
2022-09-13T23:39:31.985Z,19.08
2022-09-13T23:42:00.522Z,19.10
2022-09-13T23:44:29.758Z,19.10
2022-09-13T23:46:58.235Z,19.11
2022-09-13T23:49:28.114Z,19.10
2022-09-13T23:51:57.116Z,19.10
2022-09-13T23:54:25.543Z,19.01
2022-09-13T23:56:54.575Z,19.01
2022-09-13T23:59:23.057Z,19.03
